createdAt,value
2022-12-08T00:05:44.590Z,25.45
2022-12-08T00:15:47.561Z,27.48
2022-12-08T00:25:51.879Z,31.58
2022-12-08T00:35:54.822Z,32.33
2022-12-08T00:45:59.227Z,34.08
2022-12-08T00:56:02.235Z,25.27
2022-12-08T01:06:07.759Z,37.25
2022-12-08T01:16:11.624Z,31.98
2022-12-08T01:26:17.771Z,26.92
2022-12-08T01:36:23.204Z,23.83
2022-12-08T01:46:29.619Z,20.58
2022-12-08T01:56:37.681Z,21.13
2022-12-08T02:06:44.990Z,20.55
2022-12-08T02:16:58.540Z,21.75
2022-12-08T02:27:32.558Z,19.25
2022-12-08T02:37:43.180Z,14.77
2022-12-08T02:47:46.339Z,13.60
2022-12-08T02:58:27.642Z,13.63
2022-12-08T03:08:37.209Z,14.13
2022-12-08T03:18:44.435Z,14.77
2022-12-08T03:28:48.955Z,17.42
2022-12-08T03:38:53.872Z,23.30
2022-12-08T03:59:01.872Z,41.42
2022-12-08T04:09:06.237Z,41.63
2022-12-08T04:19:09.198Z,39.30
2022-12-08T04:29:13.516Z,32.83
2022-12-08T04:39:16.452Z,21.60
2022-12-08T04:49:20.771Z,24.23
2022-12-08T04:59:23.653Z,15.27
2022-12-08T05:09:28.184Z,7.85
2022-12-08T05:19:31.142Z,5.18
2022-12-08T05:29:35.478Z,7.10
2022-12-08T05:39:38.675Z,7.90
2022-12-08T05:49:42.980Z,4.50
2022-12-08T05:59:45.907Z,3.23
2022-12-08T06:09:50.237Z,3.92
2022-12-08T06:19:53.223Z,3.00
2022-12-08T06:29:57.654Z,4.03
2022-12-08T06:40:00.610Z,3.50
2022-12-08T06:50:07.756Z,3.77
2022-12-08T07:00:11.996Z,5.85
2022-12-08T07:10:16.441Z,6.23
2022-12-08T07:20:19.608Z,11.03
2022-12-08T07:30:24.005Z,18.95
2022-12-08T07:40:27.085Z,23.83
2022-12-08T07:50:31.455Z,39.05
2022-12-08T08:00:34.593Z,43.73
2022-12-08T08:10:38.956Z,19.27
2022-12-08T08:20:42.402Z,19.67
2022-12-08T08:30:48.226Z,16.27
2022-12-08T08:40:51.453Z,10.98
2022-12-08T08:50:56.728Z,6.93
2022-12-08T09:00:59.633Z,10.02
2022-12-08T09:11:04.072Z,32.53
2022-12-08T09:21:08.410Z,16.43
2022-12-08T09:31:12.894Z,14.93
2022-12-08T09:41:18.944Z,16.90
2022-12-08T09:51:25.186Z,24.23
2022-12-08T10:01:30.248Z,38.67
2022-12-08T10:11:45.815Z,43.20
2022-12-08T10:21:49.532Z,45.22
2022-12-08T10:31:53.971Z,41.47
2022-12-08T10:42:02.757Z,33.10
2022-12-08T10:52:11.165Z,28.60
2022-12-08T11:02:23.004Z,27.00
2022-12-08T11:12:30.507Z,28.58
2022-12-08T11:22:37.071Z,19.38
2022-12-08T11:32:43.118Z,23.73
2022-12-08T11:42:54.925Z,29.42
2022-12-08T11:53:00.992Z,25.17
2022-12-08T12:03:13.923Z,16.23
2022-12-08T12:13:46.626Z,17.02
2022-12-08T12:23:55.753Z,13.05
2022-12-08T12:34:08.628Z,13.32
2022-12-08T12:44:41.007Z,11.65
2022-12-08T12:54:45.196Z,12.35
2022-12-08T13:04:58.026Z,8.67
2022-12-08T13:15:06.495Z,10.48
2022-12-08T13:25:55.795Z,9.63
2022-12-08T13:36:12.509Z,8.57
2022-12-08T13:57:05.631Z,6.18
2022-12-08T14:07:12.672Z,5.90
2022-12-08T14:17:19.946Z,6.25
2022-12-08T14:27:25.331Z,5.20
2022-12-08T14:37:32.756Z,3.58
2022-12-08T14:47:35.929Z,3.80
2022-12-08T14:57:40.312Z,4.43
2022-12-08T15:07:49.099Z,6.93
2022-12-08T15:18:03.224Z,6.47
2022-12-08T15:28:06.232Z,6.20
2022-12-08T15:38:23.323Z,9.30
2022-12-08T15:48:28.275Z,7.93
2022-12-08T16:09:06.346Z,7.28
2022-12-08T16:19:17.124Z,11.68
2022-12-08T16:29:22.600Z,7.32
2022-12-08T16:39:26.979Z,8.50
2022-12-08T16:49:30.215Z,10.30
2022-12-08T16:59:34.495Z,10.30
2022-12-08T17:09:37.453Z,13.47
2022-12-08T17:19:41.839Z,15.00
2022-12-08T17:29:44.781Z,15.80
2022-12-08T17:39:49.119Z,19.52
2022-12-08T17:49:52.269Z,20.53
2022-12-08T17:59:56.732Z,19.45
2022-12-08T18:09:59.664Z,22.47
2022-12-08T18:20:04.510Z,24.00
2022-12-08T18:30:09.088Z,28.73
2022-12-08T18:40:14.746Z,28.53
2022-12-08T18:50:18.257Z,27.88
2022-12-08T19:00:22.812Z,26.08
2022-12-08T19:10:26.108Z,26.55
2022-12-08T19:20:30.488Z,26.67
2022-12-08T19:30:33.661Z,27.57
2022-12-08T19:40:55.714Z,24.65
2022-12-08T19:50:58.879Z,27.27
2022-12-08T20:01:03.201Z,23.63
2022-12-08T20:11:06.410Z,24.40
2022-12-08T20:21:11.992Z,26.55
2022-12-08T20:31:22.236Z,27.70
2022-12-08T20:41:26.928Z,30.60
2022-12-08T20:51:31.991Z,34.78
2022-12-08T21:01:36.656Z,34.25
2022-12-08T21:11:39.865Z,34.63
2022-12-08T21:21:46.126Z,35.53
2022-12-08T21:31:49.625Z,36.03
2022-12-08T21:42:11.421Z,39.35
2022-12-08T21:52:14.588Z,40.95
2022-12-08T22:02:22.371Z,39.60
2022-12-08T22:12:26.136Z,38.92
2022-12-08T22:22:30.663Z,39.13
2022-12-08T22:32:33.780Z,40.65
2022-12-08T22:42:38.159Z,42.35
2022-12-08T22:52:41.434Z,41.67
2022-12-08T23:02:45.925Z,45.97
2022-12-08T23:12:49.129Z,49.97
2022-12-08T23:22:53.663Z,47.92
2022-12-08T23:32:57.337Z,44.35
2022-12-08T23:43:01.741Z,43.28
2022-12-08T23:53:04.828Z,29.67
